Batavia, NY (14020)

4:49 AM EDT on September 04, 2015 (GMT -0400)
Violet Ln. | | Change Station
CLOSE
Current Station
Personal Weather Station
Location: Batavia, NY
Elevation: 893 ft
Nearby Weather Stations

Elev 893 ft 43.01 °N, 78.15 °W | Updated 22 seconds ago

Partly Cloudy
Partly Cloudy
63.9 °F
Feels Like 63.9 °F
N
0.0
Wind Variable Wind from NE
Gusts 2.7 mph

Today
High -- | Low -- °F
--% Chance of Precip.
Yesterday
High -- | Low -- °F
Precip. -- in
6:40 AM 7:42 PM
Waning Gibbous, 61% visible
Pressure 30.00 in
Visibility 5.0 miles
Clouds Few 25000 ft
Dew Point 63 °F
Humidity 98%
Rainfall 0.00 in
Snow Depth Not available.
UV 0 out of 12
Pollen 10.20 out of 12
Air Quality Not available.
Flu Activity Not available.
METAR KBUF 040754Z 05006KT 5SM BR FEW250 21/19 A3001 RMK AO2 SLP157 T02060189
Pressure 30.00 in
Visibility 5.0 miles
Clouds Few 25000 ft
Dew Point 63 °F
Humidity 98%
Rainfall 0.00 in
Snow Depth Not available.
UV 0 out of 12
Pollen 10.20 out of 12
Air Quality Not available.
Flu Activity Not available.
METAR KBUF 040754Z 05006KT 5SM BR FEW250 21/19 A3001 RMK AO2 SLP157 T02060189

10-Day Weather Forecast

×

Almanac

Astronomy

Sep. 04, 2015 Rise Set
Actual Time
Civil Twilight
Nautical Twilight
Astronomical Twilight
Moon
Length of Visible Light
Length of Day
Tomorrow will be .
, % of the Moon is Illuminated

Today's Extremes

State Highs State Lows

Community

WunderPhotos

Upload Photos

1,852,141 photos uploaded!

WunderBlogs® & News

Nearby

Air Quality

  Air Quality AQ Index Pollutant
Not available.

Snow Depth

Station Depth Elevation

Earthquake Activity

City Distance Mag. Time & Date
Minimum magnitude displayed is 2.5.

Coastal Water Temperatures

Place Temperature

Stations

Nearby Weather Stations

Station Location Temp. Windchill Dew Point Humidity Wind Precip. Elev Updated Type